sensor_id;sensor_type;location;lat;lon;timestamp;P1;durP1;ratioP1;P2;durP2;ratioP2
15155;SDS011;7678;50.058;8.306;2023-02-14T00:01:55;37.13;;;23.83;;
15155;SDS011;7678;50.058;8.306;2023-02-14T00:04:23;35.60;;;22.67;;
15155;SDS011;7678;50.058;8.306;2023-02-14T00:06:55;32.43;;;23.10;;
15155;SDS011;7678;50.058;8.306;2023-02-14T00:09:23;33.50;;;23.20;;
15155;SDS011;7678;50.058;8.306;2023-02-14T00:11:51;33.40;;;22.57;;
15155;SDS011;7678;50.058;8.306;2023-02-14T00:14:19;33.13;;;22.30;;
15155;SDS011;7678;50.058;8.306;2023-02-14T00:17:06;33.57;;;23.20;;
15155;SDS011;7678;50.058;8.306;2023-02-14T00:19:34;34.90;;;23.03;;
15155;SDS011;7678;50.058;8.306;2023-02-14T00:22:02;31.23;;;21.97;;
15155;SDS011;7678;50.058;8.306;2023-02-14T00:24:31;33.97;;;22.60;;
15155;SDS011;7678;50.058;8.306;2023-02-14T00:26:59;30.07;;;22.33;;
15155;SDS011;7678;50.058;8.306;2023-02-14T00:29:27;38.70;;;24.33;;
15155;SDS011;7678;50.058;8.306;2023-02-14T00:31:56;31.73;;;21.73;;
15155;SDS011;7678;50.058;8.306;2023-02-14T00:34:26;36.03;;;24.07;;
15155;SDS011;7678;50.058;8.306;2023-02-14T00:36:55;36.30;;;23.60;;
15155;SDS011;7678;50.058;8.306;2023-02-14T00:39:23;35.40;;;23.77;;
15155;SDS011;7678;50.058;8.306;2023-02-14T00:41:52;38.73;;;24.70;;
15155;SDS011;7678;50.058;8.306;2023-02-14T00:44:20;36.93;;;25.37;;
15155;SDS011;7678;50.058;8.306;2023-02-14T00:46:48;38.07;;;24.07;;
15155;SDS011;7678;50.058;8.306;2023-02-14T00:49:16;37.73;;;23.93;;
15155;SDS011;7678;50.058;8.306;2023-02-14T00:51:45;34.43;;;23.23;;
15155;SDS011;7678;50.058;8.306;2023-02-14T00:54:13;35.33;;;23.53;;
15155;SDS011;7678;50.058;8.306;2023-02-14T00:56:41;33.40;;;23.60;;
15155;SDS011;7678;50.058;8.306;2023-02-14T00:59:09;37.37;;;25.17;;
15155;SDS011;7678;50.058;8.306;2023-02-14T01:01:37;35.87;;;24.33;;
15155;SDS011;7678;50.058;8.306;2023-02-14T01:04:05;36.53;;;24.70;;
15155;SDS011;7678;50.058;8.306;2023-02-14T01:06:34;35.57;;;23.83;;
15155;SDS011;7678;50.058;8.306;2023-02-14T01:09:03;40.63;;;24.97;;
15155;SDS011;7678;50.058;8.306;2023-02-14T01:11:31;38.87;;;24.47;;
15155;SDS011;7678;50.058;8.306;2023-02-14T01:14:00;39.00;;;25.53;;
15155;SDS011;7678;50.058;8.306;2023-02-14T01:16:28;44.03;;;25.83;;
15155;SDS011;7678;50.058;8.306;2023-02-14T01:18:57;37.47;;;24.30;;
15155;SDS011;7678;50.058;8.306;2023-02-14T01:21:26;38.07;;;23.77;;
15155;SDS011;7678;50.058;8.306;2023-02-14T01:23:56;33.43;;;22.90;;
15155;SDS011;7678;50.058;8.306;2023-02-14T01:26:27;38.83;;;25.57;;
15155;SDS011;7678;50.058;8.306;2023-02-14T01:28:55;35.77;;;24.87;;
15155;SDS011;7678;50.058;8.306;2023-02-14T01:31:24;34.20;;;23.50;;
15155;SDS011;7678;50.058;8.306;2023-02-14T01:33:54;37.40;;;23.70;;
15155;SDS011;7678;50.058;8.306;2023-02-14T01:36:23;36.80;;;25.00;;
15155;SDS011;7678;50.058;8.306;2023-02-14T01:38:53;34.93;;;24.63;;
15155;SDS011;7678;50.058;8.306;2023-02-14T01:41:22;35.53;;;22.97;;
15155;SDS011;7678;50.058;8.306;2023-02-14T01:43:54;35.80;;;23.30;;
15155;SDS011;7678;50.058;8.306;2023-02-14T01:46:24;35.13;;;23.37;;
15155;SDS011;7678;50.058;8.306;2023-02-14T01:48:54;33.23;;;22.97;;
15155;SDS011;7678;50.058;8.306;2023-02-14T01:51:27;37.67;;;24.33;;
15155;SDS011;7678;50.058;8.306;2023-02-14T01:53:56;37.13;;;24.30;;
15155;SDS011;7678;50.058;8.306;2023-02-14T01:56:26;40.13;;;23.63;;
15155;SDS011;7678;50.058;8.306;2023-02-14T01:58:59;38.73;;;25.03;;
15155;SDS011;7678;50.058;8.306;2023-02-14T02:01:30;39.03;;;25.10;;
15155;SDS011;7678;50.058;8.306;2023-02-14T02:03:58;38.93;;;24.57;;
15155;SDS011;7678;50.058;8.306;2023-02-14T02:06:34;38.77;;;24.83;;
15155;SDS011;7678;50.058;8.306;2023-02-14T02:09:07;35.13;;;23.57;;
15155;SDS011;7678;50.058;8.306;2023-02-14T02:11:39;41.67;;;26.07;;
15155;SDS011;7678;50.058;8.306;2023-02-14T02:14:10;38.97;;;25.40;;
15155;SDS011;7678;50.058;8.306;2023-02-14T02:16:43;45.93;;;25.80;;
15155;SDS011;7678;50.058;8.306;2023-02-14T02:19:43;39.33;;;24.57;;
15155;SDS011;7678;50.058;8.306;2023-02-14T02:23:00;36.37;;;25.23;;
15155;SDS011;7678;50.058;8.306;2023-02-14T02:26:01;44.37;;;27.23;;
15155;SDS011;7678;50.058;8.306;2023-02-14T02:28:53;40.27;;;25.63;;
15155;SDS011;7678;50.058;8.306;2023-02-14T02:31:45;40.60;;;25.80;;
15155;SDS011;7678;50.058;8.306;2023-02-14T02:34:34;39.00;;;26.03;;
15155;SDS011;7678;50.058;8.306;2023-02-14T02:37:34;42.07;;;27.87;;
15155;SDS011;7678;50.058;8.306;2023-02-14T02:40:11;42.37;;;27.63;;
15155;SDS011;7678;50.058;8.306;2023-02-14T02:42:50;39.83;;;26.97;;
15155;SDS011;7678;50.058;8.306;2023-02-14T02:45:28;42.20;;;26.73;;
15155;SDS011;7678;50.058;8.306;2023-02-14T02:48:30;41.87;;;26.53;;
15155;SDS011;7678;50.058;8.306;2023-02-14T02:51:04;43.50;;;26.90;;
15155;SDS011;7678;50.058;8.306;2023-02-14T02:53:54;38.83;;;26.67;;
15155;SDS011;7678;50.058;8.306;2023-02-14T02:56:29;38.73;;;26.30;;
15155;SDS011;7678;50.058;8.306;2023-02-14T02:59:22;44.37;;;28.63;;
15155;SDS011;7678;50.058;8.306;2023-02-14T03:01:53;42.20;;;28.13;;
15155;SDS011;7678;50.058;8.306;2023-02-14T03:04:26;42.93;;;28.67;;
15155;SDS011;7678;50.058;8.306;2023-02-14T03:07:12;44.03;;;28.23;;
15155;SDS011;7678;50.058;8.306;2023-02-14T03:10:00;40.33;;;27.57;;
15155;SDS011;7678;50.058;8.306;2023-02-14T03:15:45;45.73;;;29.63;;
15155;SDS011;7678;50.058;8.306;2023-02-14T03:18:31;44.57;;;28.90;;
15155;SDS011;7678;50.058;8.306;2023-02-14T03:21:28;46.40;;;28.50;;
15155;SDS011;7678;50.058;8.306;2023-02-14T03:24:03;48.43;;;30.00;;
15155;SDS011;7678;50.058;8.306;2023-02-14T03:26:38;41.70;;;28.83;;
15155;SDS011;7678;50.058;8.306;2023-02-14T03:29:15;45.37;;;29.20;;
15155;SDS011;7678;50.058;8.306;2023-02-14T03:31:54;46.00;;;29.10;;
15155;SDS011;7678;50.058;8.306;2023-02-14T03:34:29;42.17;;;28.60;;
15155;SDS011;7678;50.058;8.306;2023-02-14T03:37:03;44.20;;;29.63;;
15155;SDS011;7678;50.058;8.306;2023-02-14T03:39:38;41.10;;;26.17;;
15155;SDS011;7678;50.058;8.306;2023-02-14T03:42:12;47.33;;;29.40;;
15155;SDS011;7678;50.058;8.306;2023-02-14T03:44:44;44.70;;;28.60;;
15155;SDS011;7678;50.058;8.306;2023-02-14T03:47:15;46.80;;;29.20;;
15155;SDS011;7678;50.058;8.306;2023-02-14T03:49:47;44.73;;;29.57;;
15155;SDS011;7678;50.058;8.306;2023-02-14T03:52:19;40.10;;;27.03;;
15155;SDS011;7678;50.058;8.306;2023-02-14T03:54:49;44.17;;;28.63;;
15155;SDS011;7678;50.058;8.306;2023-02-14T03:57:24;43.77;;;28.43;;
15155;SDS011;7678;50.058;8.306;2023-02-14T03:59:55;45.97;;;29.70;;
15155;SDS011;7678;50.058;8.306;2023-02-14T04:02:24;41.20;;;28.27;;
15155;SDS011;7678;50.058;8.306;2023-02-14T04:04:57;45.07;;;28.77;;
15155;SDS011;7678;50.058;8.306;2023-02-14T04:07:27;47.10;;;29.30;;
15155;SDS011;7678;50.058;8.306;2023-02-14T04:09:56;46.10;;;29.47;;
15155;SDS011;7678;50.058;8.306;2023-02-14T04:12:25;43.30;;;28.20;;
15155;SDS011;7678;50.058;8.306;2023-02-14T04:15:03;43.53;;;27.67;;
15155;SDS011;7678;50.058;8.306;2023-02-14T04:17:32;45.60;;;28.10;;
15155;SDS011;7678;50.058;8.306;2023-02-14T04:20:18;41.33;;;27.90;;
15155;SDS011;7678;50.058;8.306;2023-02-14T04:22:46;45.37;;;29.43;;
15155;SDS011;7678;50.058;8.306;2023-02-14T04:25:17;51.43;;;31.57;;
15155;SDS011;7678;50.058;8.306;2023-02-14T04:27:47;51.80;;;30.00;;
15155;SDS011;7678;50.058;8.306;2023-02-14T04:30:15;47.90;;;30.47;;
15155;SDS011;7678;50.058;8.306;2023-02-14T04:32:47;52.20;;;31.57;;
15155;SDS011;7678;50.058;8.306;2023-02-14T04:35:15;50.93;;;31.60;;
15155;SDS011;7678;50.058;8.306;2023-02-14T04:37:43;49.77;;;30.80;;
15155;SDS011;7678;50.058;8.306;2023-02-14T04:40:12;54.17;;;31.93;;
15155;SDS011;7678;50.058;8.306;2023-02-14T04:42:42;55.20;;;32.77;;
15155;SDS011;7678;50.058;8.306;2023-02-14T04:45:12;53.30;;;31.67;;
15155;SDS011;7678;50.058;8.306;2023-02-14T04:47:40;55.67;;;32.63;;
15155;SDS011;7678;50.058;8.306;2023-02-14T04:50:08;50.13;;;32.37;;
15155;SDS011;7678;50.058;8.306;2023-02-14T04:52:36;56.43;;;33.10;;
15155;SDS011;7678;50.058;8.306;2023-02-14T04:55:05;53.73;;;33.70;;
15155;SDS011;7678;50.058;8.306;2023-02-14T04:57:34;56.33;;;34.27;;
15155;SDS011;7678;50.058;8.306;2023-02-14T05:00:03;52.90;;;33.37;;
15155;SDS011;7678;50.058;8.306;2023-02-14T05:02:33;52.83;;;33.07;;
15155;SDS011;7678;50.058;8.306;2023-02-14T05:05:01;51.60;;;31.93;;
15155;SDS011;7678;50.058;8.306;2023-02-14T05:07:29;50.60;;;31.90;;
15155;SDS011;7678;50.058;8.306;2023-02-14T05:09:57;54.57;;;33.80;;
15155;SDS011;7678;50.058;8.306;2023-02-14T05:12:25;53.17;;;33.50;;
15155;SDS011;7678;50.058;8.306;2023-02-14T05:14:53;58.93;;;34.70;;
15155;SDS011;7678;50.058;8.306;2023-02-14T05:17:22;57.30;;;35.60;;
15155;SDS011;7678;50.058;8.306;2023-02-14T05:19:52;55.93;;;33.77;;
15155;SDS011;7678;50.058;8.306;2023-02-14T05:22:20;56.20;;;34.67;;
15155;SDS011;7678;50.058;8.306;2023-02-14T05:24:48;58.53;;;35.53;;
15155;SDS011;7678;50.058;8.306;2023-02-14T05:27:16;59.83;;;37.03;;
15155;SDS011;7678;50.058;8.306;2023-02-14T05:29:44;62.70;;;35.53;;
15155;SDS011;7678;50.058;8.306;2023-02-14T05:32:12;57.13;;;33.83;;
15155;SDS011;7678;50.058;8.306;2023-02-14T05:34:40;55.87;;;33.70;;
15155;SDS011;7678;50.058;8.306;2023-02-14T05:37:09;53.10;;;32.83;;
15155;SDS011;7678;50.058;8.306;2023-02-14T05:39:37;55.20;;;33.40;;
15155;SDS011;7678;50.058;8.306;2023-02-14T05:42:06;60.03;;;35.23;;
15155;SDS011;7678;50.058;8.306;2023-02-14T05:44:32;62.70;;;36.13;;
15155;SDS011;7678;50.058;8.306;2023-02-14T05:47:00;60.20;;;34.80;;
15155;SDS011;7678;50.058;8.306;2023-02-14T05:49:29;58.73;;;37.17;;
15155;SDS011;7678;50.058;8.306;2023-02-14T05:51:57;61.37;;;36.97;;
15155;SDS011;7678;50.058;8.306;2023-02-14T05:54:26;64.43;;;36.07;;
15155;SDS011;7678;50.058;8.306;2023-02-14T05:56:54;64.37;;;37.90;;
15155;SDS011;7678;50.058;8.306;2023-02-14T05:59:22;60.27;;;36.13;;
15155;SDS011;7678;50.058;8.306;2023-02-14T06:01:50;64.87;;;38.47;;
15155;SDS011;7678;50.058;8.306;2023-02-14T06:04:19;72.03;;;41.23;;
15155;SDS011;7678;50.058;8.306;2023-02-14T06:06:47;77.60;;;41.10;;
15155;SDS011;7678;50.058;8.306;2023-02-14T06:09:15;73.07;;;40.23;;
15155;SDS011;7678;50.058;8.306;2023-02-14T06:11:46;78.77;;;43.17;;
15155;SDS011;7678;50.058;8.306;2023-02-14T06:14:14;81.13;;;43.00;;
15155;SDS011;7678;50.058;8.306;2023-02-14T06:16:42;79.60;;;41.50;;
15155;SDS011;7678;50.058;8.306;2023-02-14T06:19:10;78.67;;;40.63;;
15155;SDS011;7678;50.058;8.306;2023-02-14T06:21:38;81.30;;;39.97;;
15155;SDS011;7678;50.058;8.306;2023-02-14T06:24:06;74.77;;;41.67;;
15155;SDS011;7678;50.058;8.306;2023-02-14T06:26:34;81.57;;;39.97;;
15155;SDS011;7678;50.058;8.306;2023-02-14T06:29:04;75.03;;;40.47;;
15155;SDS011;7678;50.058;8.306;2023-02-14T06:31:32;78.47;;;39.67;;
15155;SDS011;7678;50.058;8.306;2023-02-14T06:34:00;75.70;;;41.17;;
15155;SDS011;7678;50.058;8.306;2023-02-14T06:36:28;66.47;;;37.23;;
15155;SDS011;7678;50.058;8.306;2023-02-14T06:38:57;65.60;;;38.20;;
15155;SDS011;7678;50.058;8.306;2023-02-14T06:41:25;66.43;;;37.67;;
15155;SDS011;7678;50.058;8.306;2023-02-14T06:43:53;64.73;;;37.13;;
15155;SDS011;7678;50.058;8.306;2023-02-14T06:46:22;64.43;;;36.90;;
15155;SDS011;7678;50.058;8.306;2023-02-14T06:48:50;60.77;;;34.20;;
15155;SDS011;7678;50.058;8.306;2023-02-14T06:51:18;63.13;;;35.80;;
15155;SDS011;7678;50.058;8.306;2023-02-14T06:53:46;64.97;;;36.03;;
15155;SDS011;7678;50.058;8.306;2023-02-14T06:56:14;65.00;;;35.57;;
15155;SDS011;7678;50.058;8.306;2023-02-14T06:58:42;70.87;;;38.50;;
15155;SDS011;7678;50.058;8.306;2023-02-14T07:01:10;66.57;;;35.60;;
15155;SDS011;7678;50.058;8.306;2023-02-14T07:03:40;63.03;;;34.17;;
15155;SDS011;7678;50.058;8.306;2023-02-14T07:06:08;63.63;;;34.10;;
15155;SDS011;7678;50.058;8.306;2023-02-14T07:08:36;66.17;;;34.40;;
15155;SDS011;7678;50.058;8.306;2023-02-14T07:11:04;57.63;;;32.27;;
15155;SDS011;7678;50.058;8.306;2023-02-14T07:13:32;65.03;;;32.40;;
15155;SDS011;7678;50.058;8.306;2023-02-14T07:16:02;62.40;;;31.60;;
15155;SDS011;7678;50.058;8.306;2023-02-14T07:18:31;60.43;;;32.17;;
15155;SDS011;7678;50.058;8.306;2023-02-14T07:21:00;63.43;;;31.77;;
15155;SDS011;7678;50.058;8.306;2023-02-14T07:23:28;67.40;;;33.30;;
15155;SDS011;7678;50.058;8.306;2023-02-14T07:25:57;67.77;;;32.60;;
15155;SDS011;7678;50.058;8.306;2023-02-14T07:28:25;59.17;;;31.10;;
15155;SDS011;7678;50.058;8.306;2023-02-14T07:30:57;76.83;;;34.20;;
15155;SDS011;7678;50.058;8.306;2023-02-14T07:33:26;62.47;;;31.97;;
15155;SDS011;7678;50.058;8.306;2023-02-14T07:35:55;63.10;;;31.83;;
15155;SDS011;7678;50.058;8.306;2023-02-14T07:38:24;73.13;;;34.00;;
15155;SDS011;7678;50.058;8.306;2023-02-14T07:40:55;65.90;;;31.83;;
15155;SDS011;7678;50.058;8.306;2023-02-14T07:43:24;66.47;;;32.23;;
15155;SDS011;7678;50.058;8.306;2023-02-14T07:45:52;63.50;;;31.03;;
15155;SDS011;7678;50.058;8.306;2023-02-14T07:48:21;61.10;;;30.70;;
15155;SDS011;7678;50.058;8.306;2023-02-14T07:50:48;62.77;;;31.80;;
15155;SDS011;7678;50.058;8.306;2023-02-14T07:53:17;65.67;;;32.00;;
15155;SDS011;7678;50.058;8.306;2023-02-14T07:55:48;62.97;;;32.53;;
15155;SDS011;7678;50.058;8.306;2023-02-14T07:58:17;65.73;;;31.07;;
15155;SDS011;7678;50.058;8.306;2023-02-14T08:00:45;63.30;;;30.27;;
15155;SDS011;7678;50.058;8.306;2023-02-14T08:03:13;61.93;;;30.70;;
15155;SDS011;7678;50.058;8.306;2023-02-14T08:05:42;63.83;;;29.97;;
15155;SDS011;7678;50.058;8.306;2023-02-14T08:08:10;71.03;;;32.77;;
15155;SDS011;7678;50.058;8.306;2023-02-14T08:10:38;65.67;;;29.73;;
15155;SDS011;7678;50.058;8.306;2023-02-14T08:13:07;63.27;;;30.20;;
15155;SDS011;7678;50.058;8.306;2023-02-14T08:15:34;64.97;;;30.73;;
15155;SDS011;7678;50.058;8.306;2023-02-14T08:18:20;65.43;;;32.03;;
15155;SDS011;7678;50.058;8.306;2023-02-14T08:20:49;65.50;;;32.00;;
15155;SDS011;7678;50.058;8.306;2023-02-14T08:23:19;66.10;;;31.67;;
15155;SDS011;7678;50.058;8.306;2023-02-14T08:25:48;63.40;;;30.97;;
15155;SDS011;7678;50.058;8.306;2023-02-14T08:28:18;63.80;;;31.63;;
15155;SDS011;7678;50.058;8.306;2023-02-14T08:30:50;64.93;;;31.37;;
15155;SDS011;7678;50.058;8.306;2023-02-14T08:33:18;68.27;;;32.07;;
15155;SDS011;7678;50.058;8.306;2023-02-14T08:35:47;66.47;;;31.67;;
15155;SDS011;7678;50.058;8.306;2023-02-14T08:38:15;54.87;;;29.43;;
15155;SDS011;7678;50.058;8.306;2023-02-14T08:40:43;57.00;;;29.43;;
15155;SDS011;7678;50.058;8.306;2023-02-14T08:43:12;60.03;;;30.50;;
15155;SDS011;7678;50.058;8.306;2023-02-14T08:45:43;63.70;;;31.03;;
15155;SDS011;7678;50.058;8.306;2023-02-14T08:48:11;60.10;;;31.07;;
15155;SDS011;7678;50.058;8.306;2023-02-14T08:50:40;58.80;;;30.13;;
15155;SDS011;7678;50.058;8.306;2023-02-14T08:53:10;53.00;;;30.27;;
15155;SDS011;7678;50.058;8.306;2023-02-14T08:55:39;58.97;;;31.10;;
15155;SDS011;7678;50.058;8.306;2023-02-14T08:58:08;52.73;;;29.20;;
15155;SDS011;7678;50.058;8.306;2023-02-14T09:00:36;51.53;;;28.40;;
15155;SDS011;7678;50.058;8.306;2023-02-14T09:03:06;50.47;;;27.93;;
15155;SDS011;7678;50.058;8.306;2023-02-14T09:05:36;45.20;;;27.73;;
15155;SDS011;7678;50.058;8.306;2023-02-14T09:08:04;46.83;;;25.90;;
15155;SDS011;7678;50.058;8.306;2023-02-14T09:10:33;45.37;;;25.77;;
15155;SDS011;7678;50.058;8.306;2023-02-14T09:13:04;44.93;;;27.60;;
15155;SDS011;7678;50.058;8.306;2023-02-14T09:15:33;47.83;;;26.53;;
15155;SDS011;7678;50.058;8.306;2023-02-14T09:18:02;44.30;;;26.40;;
15155;SDS011;7678;50.058;8.306;2023-02-14T09:20:31;48.80;;;28.37;;
15155;SDS011;7678;50.058;8.306;2023-02-14T09:22:59;48.33;;;27.00;;
15155;SDS011;7678;50.058;8.306;2023-02-14T09:25:28;45.57;;;28.00;;
15155;SDS011;7678;50.058;8.306;2023-02-14T09:27:56;48.93;;;27.90;;
15155;SDS011;7678;50.058;8.306;2023-02-14T09:30:24;47.53;;;26.63;;
15155;SDS011;7678;50.058;8.306;2023-02-14T09:32:53;41.10;;;25.40;;
15155;SDS011;7678;50.058;8.306;2023-02-14T09:35:21;45.20;;;26.70;;
15155;SDS011;7678;50.058;8.306;2023-02-14T09:37:50;42.80;;;26.20;;
15155;SDS011;7678;50.058;8.306;2023-02-14T09:40:36;44.00;;;27.60;;
15155;SDS011;7678;50.058;8.306;2023-02-14T09:43:06;44.47;;;27.47;;
15155;SDS011;7678;50.058;8.306;2023-02-14T09:45:45;45.63;;;26.77;;
15155;SDS011;7678;50.058;8.306;2023-02-14T09:48:19;41.97;;;25.17;;
15155;SDS011;7678;50.058;8.306;2023-02-14T09:50:54;43.43;;;25.40;;
15155;SDS011;7678;50.058;8.306;2023-02-14T09:53:28;43.53;;;25.93;;
15155;SDS011;7678;50.058;8.306;2023-02-14T09:55:59;37.03;;;24.90;;
15155;SDS011;7678;50.058;8.306;2023-02-14T09:58:33;39.97;;;25.30;;
15155;SDS011;7678;50.058;8.306;2023-02-14T10:01:09;45.97;;;25.97;;
15155;SDS011;7678;50.058;8.306;2023-02-14T10:03:58;43.13;;;24.20;;
15155;SDS011;7678;50.058;8.306;2023-02-14T10:06:44;38.33;;;24.63;;
15155;SDS011;7678;50.058;8.306;2023-02-14T10:09:26;41.50;;;24.70;;
15155;SDS011;7678;50.058;8.306;2023-02-14T10:12:04;39.23;;;24.60;;
15155;SDS011;7678;50.058;8.306;2023-02-14T10:14:40;34.73;;;23.27;;
15155;SDS011;7678;50.058;8.306;2023-02-14T10:17:12;36.63;;;24.00;;
15155;SDS011;7678;50.058;8.306;2023-02-14T10:19:43;36.83;;;23.33;;
15155;SDS011;7678;50.058;8.306;2023-02-14T10:22:17;35.73;;;23.03;;
15155;SDS011;7678;50.058;8.306;2023-02-14T10:24:49;40.80;;;24.47;;
15155;SDS011;7678;50.058;8.306;2023-02-14T10:27:25;39.00;;;24.93;;
15155;SDS011;7678;50.058;8.306;2023-02-14T10:29:59;37.93;;;24.90;;
15155;SDS011;7678;50.058;8.306;2023-02-14T10:32:30;37.70;;;23.40;;
15155;SDS011;7678;50.058;8.306;2023-02-14T10:35:14;36.33;;;24.50;;
15155;SDS011;7678;50.058;8.306;2023-02-14T10:37:52;39.00;;;24.97;;
15155;SDS011;7678;50.058;8.306;2023-02-14T10:40:35;39.17;;;24.83;;
15155;SDS011;7678;50.058;8.306;2023-02-14T10:43:12;35.23;;;23.67;;
15155;SDS011;7678;50.058;8.306;2023-02-14T10:45:50;35.33;;;23.63;;
15155;SDS011;7678;50.058;8.306;2023-02-14T10:48:27;37.47;;;24.23;;
15155;SDS011;7678;50.058;8.306;2023-02-14T10:51:05;37.93;;;23.83;;
15155;SDS011;7678;50.058;8.306;2023-02-14T10:53:42;35.10;;;23.27;;
15155;SDS011;7678;50.058;8.306;2023-02-14T10:56:22;34.37;;;22.13;;
15155;SDS011;7678;50.058;8.306;2023-02-14T10:59:12;34.33;;;22.20;;
15155;SDS011;7678;50.058;8.306;2023-02-14T11:01:45;35.60;;;23.10;;
15155;SDS011;7678;50.058;8.306;2023-02-14T11:04:14;39.93;;;25.03;;
15155;SDS011;7678;50.058;8.306;2023-02-14T11:06:44;36.03;;;23.37;;
15155;SDS011;7678;50.058;8.306;2023-02-14T11:09:14;34.00;;;22.40;;
15155;SDS011;7678;50.058;8.306;2023-02-14T11:11:45;37.97;;;23.17;;
15155;SDS011;7678;50.058;8.306;2023-02-14T11:14:17;37.07;;;23.30;;
15155;SDS011;7678;50.058;8.306;2023-02-14T11:16:56;37.27;;;24.73;;
15155;SDS011;7678;50.058;8.306;2023-02-14T11:19:25;36.33;;;22.63;;
15155;SDS011;7678;50.058;8.306;2023-02-14T11:21:56;35.30;;;23.80;;
15155;SDS011;7678;50.058;8.306;2023-02-14T11:24:27;33.73;;;22.83;;
15155;SDS011;7678;50.058;8.306;2023-02-14T11:26:59;38.07;;;24.33;;
15155;SDS011;7678;50.058;8.306;2023-02-14T11:29:32;40.30;;;25.13;;
15155;SDS011;7678;50.058;8.306;2023-02-14T11:32:06;37.00;;;23.80;;
15155;SDS011;7678;50.058;8.306;2023-02-14T11:34:36;34.87;;;23.63;;
15155;SDS011;7678;50.058;8.306;2023-02-14T11:37:23;36.23;;;24.13;;
15155;SDS011;7678;50.058;8.306;2023-02-14T11:39:53;39.07;;;25.67;;
15155;SDS011;7678;50.058;8.306;2023-02-14T11:42:39;34.00;;;24.07;;
15155;SDS011;7678;50.058;8.306;2023-02-14T11:48:06;40.43;;;25.87;;
15155;SDS011;7678;50.058;8.306;2023-02-14T11:50:53;40.70;;;25.30;;
15155;SDS011;7678;50.058;8.306;2023-02-14T11:53:26;38.00;;;24.67;;
15155;SDS011;7678;50.058;8.306;2023-02-14T11:55:58;36.40;;;24.07;;
15155;SDS011;7678;50.058;8.306;2023-02-14T11:58:33;41.47;;;25.00;;
15155;SDS011;7678;50.058;8.306;2023-02-14T12:01:05;39.97;;;25.60;;
15155;SDS011;7678;50.058;8.306;2023-02-14T12:03:38;40.13;;;25.57;;
15155;SDS011;7678;50.058;8.306;2023-02-14T12:06:12;39.43;;;25.00;;
15155;SDS011;7678;50.058;8.306;2023-02-14T12:08:49;39.13;;;26.33;;
15155;SDS011;7678;50.058;8.306;2023-02-14T12:11:18;38.17;;;25.50;;
15155;SDS011;7678;50.058;8.306;2023-02-14T12:13:53;38.43;;;25.40;;
15155;SDS011;7678;50.058;8.306;2023-02-14T12:16:23;38.40;;;25.47;;
15155;SDS011;7678;50.058;8.306;2023-02-14T12:18:57;37.33;;;25.87;;
15155;SDS011;7678;50.058;8.306;2023-02-14T12:21:39;40.27;;;26.87;;
15155;SDS011;7678;50.058;8.306;2023-02-14T12:24:18;42.43;;;26.97;;
15155;SDS011;7678;50.058;8.306;2023-02-14T12:27:00;39.33;;;27.30;;
15155;SDS011;7678;50.058;8.306;2023-02-14T12:29:31;42.87;;;28.20;;
15155;SDS011;7678;50.058;8.306;2023-02-14T12:32:06;39.43;;;26.60;;
15155;SDS011;7678;50.058;8.306;2023-02-14T12:34:42;40.57;;;27.70;;
15155;SDS011;7678;50.058;8.306;2023-02-14T12:37:12;42.53;;;27.60;;
15155;SDS011;7678;50.058;8.306;2023-02-14T12:39:53;43.03;;;28.67;;
15155;SDS011;7678;50.058;8.306;2023-02-14T12:42:36;39.97;;;26.87;;
15155;SDS011;7678;50.058;8.306;2023-02-14T12:45:22;39.67;;;27.70;;
15155;SDS011;7678;50.058;8.306;2023-02-14T12:47:58;40.83;;;28.20;;
15155;SDS011;7678;50.058;8.306;2023-02-14T12:50:33;41.33;;;27.13;;
15155;SDS011;7678;50.058;8.306;2023-02-14T12:56:15;39.87;;;27.70;;
15155;SDS011;7678;50.058;8.306;2023-02-14T12:58:55;41.73;;;28.00;;
15155;SDS011;7678;50.058;8.306;2023-02-14T13:01:38;43.00;;;30.40;;
15155;SDS011;7678;50.058;8.306;2023-02-14T13:04:43;44.17;;;30.03;;
15155;SDS011;7678;50.058;8.306;2023-02-14T13:10:33;41.53;;;29.57;;
15155;SDS011;7678;50.058;8.306;2023-02-14T13:13:14;46.57;;;33.17;;
15155;SDS011;7678;50.058;8.306;2023-02-14T13:15:51;44.97;;;33.50;;
15155;SDS011;7678;50.058;8.306;2023-02-14T13:18:31;48.40;;;33.93;;
15155;SDS011;7678;50.058;8.306;2023-02-14T13:21:07;47.50;;;34.23;;
15155;SDS011;7678;50.058;8.306;2023-02-14T13:23:41;48.30;;;35.87;;
15155;SDS011;7678;50.058;8.306;2023-02-14T13:26:12;43.33;;;33.50;;
15155;SDS011;7678;50.058;8.306;2023-02-14T13:28:44;52.53;;;36.57;;
15155;SDS011;7678;50.058;8.306;2023-02-14T13:31:17;47.70;;;35.50;;
15155;SDS011;7678;50.058;8.306;2023-02-14T13:33:49;48.83;;;34.33;;
15155;SDS011;7678;50.058;8.306;2023-02-14T13:36:20;47.87;;;35.87;;
15155;SDS011;7678;50.058;8.306;2023-02-14T13:38:50;51.23;;;36.50;;
15155;SDS011;7678;50.058;8.306;2023-02-14T13:41:20;47.80;;;34.53;;
15155;SDS011;7678;50.058;8.306;2023-02-14T13:43:51;48.40;;;36.13;;
15155;SDS011;7678;50.058;8.306;2023-02-14T13:49:29;47.23;;;34.97;;
15155;SDS011;7678;50.058;8.306;2023-02-14T13:52:00;51.70;;;35.33;;
15155;SDS011;7678;50.058;8.306;2023-02-14T13:54:31;48.13;;;35.07;;
15155;SDS011;7678;50.058;8.306;2023-02-14T13:57:04;55.37;;;37.30;;
15155;SDS011;7678;50.058;8.306;2023-02-14T14:03:13;50.40;;;35.70;;
15155;SDS011;7678;50.058;8.306;2023-02-14T14:06:05;51.67;;;38.13;;
15155;SDS011;7678;50.058;8.306;2023-02-14T14:08:41;50.93;;;37.80;;
15155;SDS011;7678;50.058;8.306;2023-02-14T14:11:12;52.53;;;39.30;;
15155;SDS011;7678;50.058;8.306;2023-02-14T14:14:33;53.67;;;40.47;;
15155;SDS011;7678;50.058;8.306;2023-02-14T14:17:21;56.23;;;40.43;;
15155;SDS011;7678;50.058;8.306;2023-02-14T14:19:52;55.30;;;39.70;;
15155;SDS011;7678;50.058;8.306;2023-02-14T14:22:24;62.40;;;42.23;;
15155;SDS011;7678;50.058;8.306;2023-02-14T14:24:55;56.13;;;40.80;;
15155;SDS011;7678;50.058;8.306;2023-02-14T14:27:26;54.80;;;40.57;;
15155;SDS011;7678;50.058;8.306;2023-02-14T14:29:58;56.93;;;40.07;;
15155;SDS011;7678;50.058;8.306;2023-02-14T14:32:39;52.60;;;38.47;;
15155;SDS011;7678;50.058;8.306;2023-02-14T14:35:15;52.77;;;38.47;;
15155;SDS011;7678;50.058;8.306;2023-02-14T14:37:47;50.20;;;38.27;;
15155;SDS011;7678;50.058;8.306;2023-02-14T14:40:18;52.47;;;37.43;;
15155;SDS011;7678;50.058;8.306;2023-02-14T14:42:52;56.80;;;40.13;;
15155;SDS011;7678;50.058;8.306;2023-02-14T14:45:22;47.27;;;35.87;;
15155;SDS011;7678;50.058;8.306;2023-02-14T14:47:54;50.47;;;36.90;;
15155;SDS011;7678;50.058;8.306;2023-02-14T14:50:25;47.20;;;35.33;;
15155;SDS011;7678;50.058;8.306;2023-02-14T14:52:56;51.80;;;34.60;;
15155;SDS011;7678;50.058;8.306;2023-02-14T14:55:30;43.13;;;32.73;;
15155;SDS011;7678;50.058;8.306;2023-02-14T15:00:59;44.20;;;34.90;;
15155;SDS011;7678;50.058;8.306;2023-02-14T15:03:27;42.47;;;33.07;;
15155;SDS011;7678;50.058;8.306;2023-02-14T15:06:04;48.27;;;35.20;;
15155;SDS011;7678;50.058;8.306;2023-02-14T15:08:37;43.57;;;34.20;;
15155;SDS011;7678;50.058;8.306;2023-02-14T15:11:05;46.17;;;34.73;;
15155;SDS011;7678;50.058;8.306;2023-02-14T15:13:37;46.87;;;34.33;;
15155;SDS011;7678;50.058;8.306;2023-02-14T15:16:20;43.90;;;32.93;;
15155;SDS011;7678;50.058;8.306;2023-02-14T15:18:53;42.70;;;32.73;;
15155;SDS011;7678;50.058;8.306;2023-02-14T15:21:24;44.03;;;32.67;;
15155;SDS011;7678;50.058;8.306;2023-02-14T15:23:54;43.67;;;31.83;;
15155;SDS011;7678;50.058;8.306;2023-02-14T15:26:24;41.17;;;32.00;;
15155;SDS011;7678;50.058;8.306;2023-02-14T15:28:57;49.87;;;36.60;;